createdAt,value
2023-03-06T00:00:06.945Z,0
2023-03-06T00:01:21.362Z,0
2023-03-06T00:02:35.677Z,0
2023-03-06T00:03:49.949Z,0
2023-03-06T00:05:04.230Z,0
2023-03-06T00:06:18.646Z,0
2023-03-06T00:07:32.962Z,0
2023-03-06T00:08:47.246Z,0
2023-03-06T00:10:01.537Z,0
2023-03-06T00:11:15.948Z,0
2023-03-06T00:12:30.258Z,0
2023-03-06T00:13:44.533Z,0
2023-03-06T00:16:13.225Z,0
2023-03-06T00:17:27.551Z,0
2023-03-06T00:18:41.835Z,0
2023-03-06T00:19:56.120Z,0
2023-03-06T00:21:10.529Z,0
2023-03-06T00:22:24.852Z,0
2023-03-06T00:23:39.128Z,0
2023-03-06T00:24:53.399Z,0
2023-03-06T00:26:07.817Z,0
2023-03-06T00:27:22.144Z,0
2023-03-06T00:28:36.423Z,0
2023-03-06T00:29:50.760Z,0
2023-03-06T00:31:05.166Z,0
2023-03-06T00:32:19.500Z,0
2023-03-06T00:33:32.844Z,0
2023-03-06T00:34:47.124Z,0
2023-03-06T00:36:01.536Z,0
2023-03-06T00:37:15.869Z,0
2023-03-06T00:38:30.135Z,0
2023-03-06T00:39:44.429Z,0
2023-03-06T00:40:58.838Z,0
2023-03-06T00:42:13.150Z,0
2023-03-06T00:43:27.441Z,0
2023-03-06T00:44:41.706Z,0
2023-03-06T00:45:56.128Z,0
2023-03-06T00:47:10.446Z,0
2023-03-06T00:49:39.167Z,0
2023-03-06T00:50:53.457Z,0
2023-03-06T00:52:07.861Z,0
2023-03-06T00:53:22.183Z,0
2023-03-06T00:54:36.476Z,0
2023-03-06T00:55:50.740Z,0
2023-03-06T00:57:05.158Z,0
2023-03-06T00:58:19.479Z,0
2023-03-06T00:59:33.759Z,0
2023-03-06T01:00:48.046Z,0
2023-03-06T01:02:02.453Z,0
2023-03-06T01:03:16.779Z,0
2023-03-06T01:04:31.058Z,0
2023-03-06T01:05:45.326Z,0
2023-03-06T01:06:59.734Z,0
2023-03-06T01:08:14.059Z,0
2023-03-06T01:09:28.342Z,0
2023-03-06T01:10:42.618Z,0
2023-03-06T01:11:57.038Z,0
2023-03-06T01:13:11.362Z,0
2023-03-06T01:14:25.639Z,0
2023-03-06T01:16:54.317Z,0
2023-03-06T01:18:08.655Z,0
2023-03-06T01:19:22.936Z,0
2023-03-06T01:20:37.209Z,0
2023-03-06T01:21:51.617Z,0
2023-03-06T01:23:05.933Z,0
2023-03-06T01:24:20.211Z,0
2023-03-06T01:25:34.508Z,0
2023-03-06T01:26:48.905Z,0
2023-03-06T01:28:03.224Z,0
2023-03-06T01:29:17.513Z,0
2023-03-06T01:30:31.784Z,0
2023-03-06T01:31:46.199Z,0
2023-03-06T01:33:00.527Z,0
2023-03-06T01:34:14.862Z,0
2023-03-06T01:35:29.202Z,0
2023-03-06T01:36:43.616Z,0
2023-03-06T01:37:57.951Z,0
2023-03-06T01:39:11.300Z,0
2023-03-06T01:41:40.108Z,0
2023-03-06T01:42:54.420Z,0
2023-03-06T01:44:08.713Z,0
2023-03-06T01:45:22.993Z,0
2023-03-06T01:46:37.395Z,0
2023-03-06T01:47:51.713Z,0
2023-03-06T01:49:06.010Z,0
2023-03-06T01:50:20.291Z,0
2023-03-06T01:51:34.693Z,0
2023-03-06T01:52:48.963Z,1
2023-03-06T01:54:03.243Z,0
2023-03-06T01:55:17.582Z,0
2023-03-06T01:56:31.854Z,0
2023-03-06T01:57:46.261Z,0
2023-03-06T01:59:00.582Z,0
2023-03-06T02:00:14.859Z,0
2023-03-06T02:01:29.140Z,0
2023-03-06T02:02:43.553Z,0
2023-03-06T02:03:57.883Z,0
2023-03-06T02:05:12.156Z,0
2023-03-06T02:06:26.432Z,0
2023-03-06T02:07:40.856Z,0
2023-03-06T02:08:55.175Z,0
2023-03-06T02:10:09.598Z,0
2023-03-06T02:11:23.923Z,0
2023-03-06T02:12:38.202Z,0
2023-03-06T02:13:52.609Z,0
2023-03-06T02:15:06.929Z,0
2023-03-06T02:16:21.221Z,0
2023-03-06T02:17:35.493Z,0
2023-03-06T02:18:49.899Z,0
2023-03-06T02:20:04.218Z,0
2023-03-06T02:21:18.513Z,0
2023-03-06T02:22:32.775Z,0
2023-03-06T02:23:47.192Z,0
2023-03-06T02:25:01.517Z,0
2023-03-06T02:27:30.074Z,0
2023-03-06T02:28:44.491Z,0
2023-03-06T02:29:58.805Z,0
2023-03-06T02:31:13.000Z,0
2023-03-06T02:32:27.364Z,0
2023-03-06T02:33:41.783Z,0
2023-03-06T02:34:56.103Z,0
2023-03-06T02:36:10.380Z,0
2023-03-06T02:37:24.655Z,0
2023-03-06T02:38:39.068Z,0
2023-03-06T02:39:53.395Z,0
2023-03-06T02:41:07.754Z,0
2023-03-06T02:42:21.096Z,0
2023-03-06T02:43:35.415Z,0
2023-03-06T02:44:49.695Z,0
2023-03-06T02:46:03.971Z,0
2023-03-06T02:47:18.380Z,0
2023-03-06T02:48:32.708Z,0
2023-03-06T02:49:46.987Z,0
2023-03-06T02:51:01.263Z,0
2023-03-06T02:52:15.671Z,0
2023-03-06T02:53:30.003Z,0
2023-03-06T02:54:44.284Z,0
2023-03-06T02:55:58.553Z,0
2023-03-06T02:57:12.965Z,0
2023-03-06T02:58:27.276Z,0
2023-03-06T02:59:41.563Z,0
2023-03-06T03:00:55.848Z,0
2023-03-06T03:02:10.258Z,0
2023-03-06T03:04:38.857Z,0
2023-03-06T03:05:53.133Z,0
2023-03-06T03:07:07.554Z,0
2023-03-06T03:08:21.874Z,0
2023-03-06T03:09:36.147Z,0
2023-03-06T03:10:50.578Z,0
2023-03-06T03:12:04.987Z,0
2023-03-06T03:13:19.315Z,0
2023-03-06T03:14:33.588Z,0
2023-03-06T03:15:47.866Z,0
2023-03-06T03:17:02.264Z,0
2023-03-06T03:18:16.604Z,0
2023-03-06T03:19:30.883Z,0
2023-03-06T03:20:45.151Z,0
2023-03-06T03:21:59.561Z,0
2023-03-06T03:23:13.881Z,0
2023-03-06T03:24:28.174Z,0
2023-03-06T03:25:42.448Z,0
2023-03-06T03:26:56.869Z,0
2023-03-06T03:28:11.174Z,0
2023-03-06T03:29:25.461Z,0
2023-03-06T03:30:39.872Z,0
2023-03-06T03:31:54.266Z,0
2023-03-06T03:33:08.600Z,0
2023-03-06T03:34:22.888Z,0
2023-03-06T03:35:37.164Z,0
2023-03-06T03:38:05.893Z,0
2023-03-06T03:39:20.166Z,0
2023-03-06T03:40:34.456Z,0
2023-03-06T03:41:48.860Z,0
2023-03-06T03:43:03.181Z,0
2023-03-06T03:44:17.473Z,0
2023-03-06T03:45:31.754Z,0
2023-03-06T03:46:46.152Z,0
2023-03-06T03:48:00.481Z,0
2023-03-06T03:49:14.752Z,0
2023-03-06T03:50:29.038Z,0
2023-03-06T03:51:43.435Z,0
2023-03-06T03:52:57.776Z,0
2023-03-06T03:54:12.040Z,0
2023-03-06T03:55:26.331Z,0
2023-03-06T03:56:40.747Z,0
2023-03-06T03:57:55.052Z,0
2023-03-06T03:59:09.491Z,0
2023-03-06T04:00:23.804Z,0
2023-03-06T04:01:38.100Z,0
2023-03-06T04:02:52.502Z,0
2023-03-06T04:04:06.817Z,0
2023-03-06T04:05:21.101Z,0
2023-03-06T04:06:35.376Z,0
2023-03-06T04:07:49.785Z,0
2023-03-06T04:09:04.124Z,0
2023-03-06T04:10:18.518Z,0
2023-03-06T04:11:32.841Z,0
2023-03-06T04:14:01.539Z,0
2023-03-06T04:15:15.856Z,0
2023-03-06T04:16:30.134Z,0
2023-03-06T04:17:44.409Z,0
2023-03-06T04:18:58.830Z,0
2023-03-06T04:20:13.137Z,0
2023-03-06T04:21:27.426Z,0
2023-03-06T04:22:41.704Z,0
2023-03-06T04:23:56.106Z,0
2023-03-06T04:25:10.435Z,0
2023-03-06T04:26:24.728Z,0
2023-03-06T04:27:38.991Z,0
2023-03-06T04:28:53.404Z,0
2023-03-06T04:30:07.737Z,0
2023-03-06T04:31:22.017Z,0
2023-03-06T04:32:36.291Z,0
2023-03-06T04:33:50.696Z,0
2023-03-06T04:35:05.033Z,0
2023-03-06T04:36:19.313Z,0
2023-03-06T04:37:33.579Z,0
2023-03-06T04:38:48.002Z,0
2023-03-06T04:40:02.313Z,0
2023-03-06T04:41:16.599Z,0
2023-03-06T04:42:30.885Z,0
2023-03-06T04:43:45.275Z,0
2023-03-06T04:44:59.606Z,0
2023-03-06T04:46:13.879Z,0
2023-03-06T04:47:28.166Z,0
2023-03-06T04:48:42.582Z,0
2023-03-06T04:49:56.901Z,0
2023-03-06T04:51:11.179Z,0
2023-03-06T04:52:25.454Z,0
2023-03-06T04:53:39.879Z,0
2023-03-06T04:54:54.199Z,0
2023-03-06T04:56:08.528Z,0
2023-03-06T04:57:22.878Z,0
2023-03-06T04:58:37.273Z,0
2023-03-06T04:59:51.611Z,0
2023-03-06T05:01:04.956Z,0
2023-03-06T05:02:19.253Z,0
2023-03-06T05:03:33.647Z,0
2023-03-06T05:04:47.981Z,0
2023-03-06T05:06:02.251Z,0
2023-03-06T05:07:16.545Z,0
2023-03-06T05:08:30.950Z,0
2023-03-06T05:09:45.261Z,0
2023-03-06T05:10:59.544Z,0
2023-03-06T05:12:13.823Z,0
2023-03-06T05:13:28.248Z,0
2023-03-06T05:14:42.565Z,0
2023-03-06T05:15:56.850Z,0
2023-03-06T05:17:11.120Z,0
2023-03-06T05:18:25.524Z,0
2023-03-06T05:19:39.856Z,0
2023-03-06T05:20:54.140Z,0
2023-03-06T05:22:08.412Z,0
2023-03-06T05:23:22.831Z,0
2023-03-06T05:24:37.071Z,1
2023-03-06T05:25:51.285Z,1
2023-03-06T05:27:05.516Z,1
2023-03-06T05:28:19.742Z,1
2023-03-06T05:29:34.039Z,1
2023-03-06T05:30:48.291Z,1
2023-03-06T05:32:02.639Z,0
2023-03-06T05:33:16.969Z,0
2023-03-06T05:34:31.340Z,2
2023-03-06T05:35:45.612Z,2
2023-03-06T05:36:58.908Z,1
2023-03-06T05:38:13.146Z,1
2023-03-06T05:39:27.434Z,1
2023-03-06T05:40:41.683Z,3
2023-03-06T05:41:55.915Z,2
2023-03-06T05:43:10.139Z,8
2023-03-06T05:44:24.367Z,10
2023-03-06T05:45:38.662Z,7
2023-03-06T05:46:52.894Z,11
2023-03-06T05:48:07.128Z,14
2023-03-06T05:50:35.578Z,23
2023-03-06T05:51:49.883Z,26
2023-03-06T05:53:04.121Z,32
2023-03-06T05:54:18.359Z,42
2023-03-06T05:55:32.575Z,42
2023-03-06T05:56:46.806Z,50
2023-03-06T05:58:01.105Z,65
2023-03-06T05:59:15.340Z,75
2023-03-06T06:00:29.581Z,90
2023-03-06T06:01:43.794Z,104
2023-03-06T06:02:58.016Z,111
2023-03-06T06:04:12.327Z,122
2023-03-06T06:05:26.563Z,131
2023-03-06T06:07:55.080Z,166
2023-03-06T06:09:08.384Z,173
2023-03-06T06:10:22.606Z,187
2023-03-06T06:11:36.853Z,199
2023-03-06T06:12:51.077Z,213
2023-03-06T06:14:05.295Z,206
2023-03-06T06:15:19.596Z,214
2023-03-06T06:16:33.844Z,241
2023-03-06T06:17:48.065Z,267
2023-03-06T06:19:02.285Z,269
2023-03-06T06:20:16.517Z,257
2023-03-06T06:21:30.824Z,276
2023-03-06T06:22:45.054Z,291
2023-03-06T06:23:59.291Z,343
2023-03-06T06:25:13.514Z,388
2023-03-06T06:26:27.749Z,393
2023-03-06T06:27:42.040Z,383
2023-03-06T06:30:10.516Z,510
2023-03-06T06:31:24.739Z,554
2023-03-06T06:32:38.958Z,511
2023-03-06T06:33:53.253Z,669
2023-03-06T06:35:07.504Z,687
2023-03-06T06:36:21.739Z,723
2023-03-06T06:37:35.956Z,780
2023-03-06T06:38:50.177Z,795
2023-03-06T06:41:18.825Z,871
2023-03-06T06:42:32.153Z,887
2023-03-06T06:43:45.446Z,895
2023-03-06T06:44:59.691Z,908
2023-03-06T06:46:13.922Z,939
2023-03-06T06:47:28.149Z,989
2023-03-06T06:48:42.381Z,986
2023-03-06T06:49:56.682Z,1038
2023-03-06T06:51:10.911Z,1095
2023-03-06T06:52:25.150Z,1153
2023-03-06T06:53:39.375Z,1192
2023-03-06T06:54:53.609Z,1194
2023-03-06T06:56:07.893Z,1218
2023-03-06T06:57:22.132Z,1244
2023-03-06T06:58:36.377Z,1226
2023-03-06T06:59:50.598Z,1170
2023-03-06T07:01:04.815Z,1156
2023-03-06T07:02:19.121Z,1158
2023-03-06T07:03:33.353Z,1174
2023-03-06T07:04:47.590Z,1180
2023-03-06T07:06:01.826Z,1149
2023-03-06T07:07:16.037Z,1147
2023-03-06T07:08:30.341Z,1126
2023-03-06T07:09:44.595Z,1116
2023-03-06T07:12:13.046Z,1220
2023-03-06T07:13:27.263Z,1229
2023-03-06T07:14:41.629Z,1226
2023-03-06T07:15:55.903Z,1294
2023-03-06T07:17:09.246Z,1370
2023-03-06T07:18:23.544Z,1384
2023-03-06T07:20:52.124Z,1526
2023-03-06T07:22:06.482Z,1553
2023-03-06T07:23:20.720Z,1522
2023-03-06T07:24:34.939Z,1490
2023-03-06T07:25:49.233Z,1327
2023-03-06T07:27:03.473Z,1177
2023-03-06T07:28:17.713Z,1013
2023-03-06T07:29:31.928Z,931
2023-03-06T07:30:46.159Z,859
2023-03-06T07:32:00.463Z,1050
2023-03-06T07:33:14.708Z,1195
2023-03-06T07:35:43.159Z,1128
2023-03-06T07:36:57.389Z,1126
2023-03-06T07:38:11.685Z,1109
2023-03-06T07:39:25.933Z,1160
2023-03-06T07:40:40.149Z,1108
2023-03-06T07:41:54.384Z,1072
2023-03-06T07:43:08.613Z,1226
2023-03-06T07:44:22.900Z,944
2023-03-06T07:45:37.146Z,823
2023-03-06T07:46:51.376Z,848
2023-03-06T07:48:05.600Z,925
2023-03-06T07:50:34.134Z,992
2023-03-06T07:51:48.379Z,1013
2023-03-06T07:53:02.655Z,852
2023-03-06T07:54:15.943Z,779
2023-03-06T07:55:30.254Z,863
2023-03-06T07:56:44.495Z,877
2023-03-06T07:57:58.722Z,839
2023-03-06T07:59:12.945Z,749
2023-03-06T08:00:27.180Z,683
2023-03-06T08:01:41.466Z,741
2023-03-06T08:02:55.706Z,760
2023-03-06T08:04:09.934Z,763
2023-03-06T08:05:24.168Z,704
2023-03-06T08:06:38.395Z,668
2023-03-06T08:07:52.687Z,793
2023-03-06T08:09:06.943Z,988
2023-03-06T08:10:21.162Z,1334
2023-03-06T08:11:35.392Z,1737
2023-03-06T08:12:49.614Z,1828
2023-03-06T08:14:03.914Z,1429
2023-03-06T08:15:18.161Z,1413
2023-03-06T08:16:32.395Z,1603
2023-03-06T08:17:46.611Z,1463
2023-03-06T08:19:00.841Z,1275
2023-03-06T08:20:15.139Z,1670
2023-03-06T08:21:29.383Z,1670
2023-03-06T08:22:43.615Z,1838
2023-03-06T08:25:12.131Z,1907
2023-03-06T08:26:26.429Z,2062
2023-03-06T08:27:40.704Z,3181
2023-03-06T08:28:54.000Z,2885
2023-03-06T08:30:08.224Z,2799
2023-03-06T08:31:22.530Z,2411
2023-03-06T08:33:50.993Z,2320
2023-03-06T08:35:05.217Z,2504
2023-03-06T08:36:19.460Z,2539
2023-03-06T08:37:33.755Z,3282
2023-03-06T08:38:47.992Z,2809
2023-03-06T08:40:02.222Z,2634
2023-03-06T08:41:16.441Z,3074
2023-03-06T08:42:30.670Z,3205
2023-03-06T08:43:44.961Z,4075
2023-03-06T08:44:59.202Z,2616
2023-03-06T08:46:13.437Z,2467
2023-03-06T08:47:27.672Z,2159
2023-03-06T08:48:41.891Z,1835
2023-03-06T08:49:56.188Z,2309
2023-03-06T08:51:10.431Z,2162
2023-03-06T08:52:24.652Z,2162
2023-03-06T08:53:38.883Z,2252
2023-03-06T08:54:53.111Z,2161
2023-03-06T08:56:07.416Z,2095
2023-03-06T08:57:21.657Z,1834
2023-03-06T08:59:50.252Z,1602
2023-03-06T09:01:04.483Z,1494
2023-03-06T09:02:18.785Z,1968
2023-03-06T09:03:33.024Z,2215
2023-03-06T09:04:47.240Z,2892
2023-03-06T09:06:01.474Z,3441
2023-03-06T09:07:15.698Z,3104
2023-03-06T09:08:29.992Z,3761
2023-03-06T09:09:44.235Z,3252
2023-03-06T09:10:58.605Z,2533
2023-03-06T09:12:12.842Z,2262
2023-03-06T09:13:27.056Z,2631
2023-03-06T09:14:41.363Z,1968
2023-03-06T09:15:55.609Z,3309
2023-03-06T09:17:09.826Z,3545
2023-03-06T09:18:24.056Z,2945
2023-03-06T09:19:38.281Z,3300
2023-03-06T09:20:52.592Z,3392
2023-03-06T09:22:06.831Z,2951
2023-03-06T09:23:21.047Z,2267
2023-03-06T09:24:35.286Z,1659
2023-03-06T09:25:49.504Z,1588
2023-03-06T09:27:03.800Z,1889
2023-03-06T09:28:18.050Z,1953
2023-03-06T09:29:32.275Z,1759
2023-03-06T09:30:46.501Z,1932
2023-03-06T09:32:00.729Z,2012
2023-03-06T09:33:15.028Z,1998
2023-03-06T09:34:29.271Z,2534
2023-03-06T09:35:43.498Z,3518
2023-03-06T09:36:57.728Z,4661
2023-03-06T09:38:11.955Z,6126
2023-03-06T09:39:26.255Z,6641
2023-03-06T09:40:40.488Z,7249
2023-03-06T09:41:54.871Z,6861
2023-03-06T09:43:09.096Z,7200
2023-03-06T09:44:23.323Z,7439
2023-03-06T09:45:37.617Z,5607
2023-03-06T09:46:51.859Z,7569
2023-03-06T09:48:06.078Z,5996
2023-03-06T09:49:20.315Z,5596
2023-03-06T09:50:34.544Z,4870
2023-03-06T09:51:48.847Z,5548
2023-03-06T09:53:03.086Z,5176
2023-03-06T09:54:17.308Z,5090
2023-03-06T09:55:31.526Z,5106
2023-03-06T09:56:45.757Z,5379
2023-03-06T09:58:00.061Z,3264
2023-03-06T09:59:14.297Z,3472
2023-03-06T10:00:28.522Z,4376
2023-03-06T10:02:56.980Z,6470
2023-03-06T10:04:11.282Z,5239
2023-03-06T10:05:25.516Z,4025
2023-03-06T10:06:39.740Z,2767
2023-03-06T10:07:53.973Z,2736
2023-03-06T10:09:08.202Z,2618
2023-03-06T10:10:22.508Z,2690
2023-03-06T10:11:36.740Z,2747
2023-03-06T10:12:51.000Z,2188
2023-03-06T10:14:04.367Z,1906
2023-03-06T10:15:18.665Z,2143
2023-03-06T10:16:32.938Z,2311
2023-03-06T10:17:46.248Z,1792
2023-03-06T10:19:00.459Z,1545
2023-03-06T10:20:14.775Z,1359
2023-03-06T10:21:29.008Z,1431
2023-03-06T10:22:43.235Z,1766
2023-03-06T10:23:57.468Z,1672
2023-03-06T10:25:11.689Z,1641
2023-03-06T10:26:25.982Z,1807
2023-03-06T10:27:40.222Z,1716
2023-03-06T10:28:54.454Z,1614
2023-03-06T10:30:08.673Z,2018
2023-03-06T10:31:23.025Z,2280
2023-03-06T10:32:37.333Z,3143
2023-03-06T10:33:51.573Z,4245
2023-03-06T10:35:05.801Z,6723
2023-03-06T10:36:20.029Z,8111
2023-03-06T10:37:34.260Z,8776
2023-03-06T10:38:48.561Z,9544
2023-03-06T10:40:02.793Z,9243
2023-03-06T10:41:17.012Z,8568
2023-03-06T10:42:31.255Z,7792
2023-03-06T10:43:45.477Z,7485
2023-03-06T10:44:59.772Z,5795
2023-03-06T10:46:14.005Z,5138
2023-03-06T10:47:28.241Z,5482
2023-03-06T10:48:42.460Z,6166
2023-03-06T10:51:10.996Z,5792
2023-03-06T10:52:25.227Z,6033
2023-03-06T10:53:39.463Z,6751
2023-03-06T10:54:53.682Z,6631
2023-03-06T10:56:07.918Z,6281
2023-03-06T10:57:22.223Z,4790
2023-03-06T10:58:36.463Z,4135
2023-03-06T11:01:04.915Z,3933
2023-03-06T11:02:19.131Z,3858
2023-03-06T11:03:33.427Z,4131
2023-03-06T11:04:47.674Z,5321
2023-03-06T11:06:01.904Z,5934
2023-03-06T11:07:16.127Z,5562
2023-03-06T11:08:30.366Z,5304
2023-03-06T11:09:44.656Z,4560
2023-03-06T11:10:58.900Z,4962
2023-03-06T11:12:13.117Z,4866
2023-03-06T11:13:27.349Z,5948
2023-03-06T11:14:41.577Z,6288
2023-03-06T11:15:55.887Z,6933
2023-03-06T11:17:10.170Z,7358
2023-03-06T11:18:23.529Z,8685
2023-03-06T11:20:51.152Z,10033
2023-03-06T11:22:05.424Z,9056
2023-03-06T11:23:18.719Z,7448
2023-03-06T11:24:33.024Z,7192
2023-03-06T11:25:47.260Z,8166
2023-03-06T11:27:01.483Z,10505
2023-03-06T11:28:15.712Z,14997
2023-03-06T11:29:29.943Z,12214
2023-03-06T11:30:44.252Z,12160
2023-03-06T11:31:58.478Z,11802
2023-03-06T11:33:12.708Z,22643
2023-03-06T11:34:26.942Z,20116
2023-03-06T11:35:41.163Z,10730
2023-03-06T11:36:55.462Z,12585
2023-03-06T11:38:09.700Z,13936
2023-03-06T11:39:23.932Z,14278
2023-03-06T11:40:38.164Z,13288
2023-03-06T11:41:52.389Z,32824
2023-03-06T11:43:06.693Z,15931
2023-03-06T11:44:20.925Z,12929
2023-03-06T11:45:35.164Z,24409
2023-03-06T11:46:49.385Z,78359
2023-03-06T11:48:03.610Z,27030
2023-03-06T11:49:17.897Z,13836
2023-03-06T11:50:32.153Z,13885
2023-03-06T11:51:46.373Z,77778
2023-03-06T11:53:00.595Z,79807
2023-03-06T11:54:14.890Z,66274
2023-03-06T11:55:29.183Z,13361
2023-03-06T11:56:43.474Z,16802
2023-03-06T11:57:56.804Z,8867
2023-03-06T11:59:11.084Z,18498
2023-03-06T12:00:25.398Z,6156
2023-03-06T12:01:39.680Z,4351
2023-03-06T12:02:52.971Z,2891
2023-03-06T12:04:07.197Z,2424
2023-03-06T12:05:21.500Z,1859
2023-03-06T12:06:35.732Z,1666
2023-03-06T12:07:49.955Z,1550
2023-03-06T12:09:04.195Z,1531
2023-03-06T12:10:18.417Z,1587
2023-03-06T12:11:32.718Z,1893
2023-03-06T12:12:46.962Z,1885
2023-03-06T12:14:01.186Z,2053
2023-03-06T12:15:15.412Z,2391
2023-03-06T12:16:29.632Z,2420
2023-03-06T12:17:43.940Z,2427
2023-03-06T12:18:58.172Z,2211
2023-03-06T12:20:12.407Z,2223
2023-03-06T12:21:26.748Z,2215
2023-03-06T12:22:40.990Z,2203
2023-03-06T12:23:55.283Z,2114
2023-03-06T12:25:09.512Z,2128
2023-03-06T12:26:23.737Z,2274
2023-03-06T12:27:37.969Z,2362
2023-03-06T12:28:52.195Z,2366
2023-03-06T12:30:06.504Z,2423
2023-03-06T12:31:20.750Z,2526
2023-03-06T12:32:34.966Z,2852
2023-03-06T12:33:49.201Z,3358
2023-03-06T12:35:03.422Z,3643
2023-03-06T12:36:17.724Z,4539
2023-03-06T12:38:46.694Z,5182
2023-03-06T12:40:00.916Z,8231
2023-03-06T12:41:15.143Z,8039
2023-03-06T12:42:29.439Z,7285
2023-03-06T12:43:43.676Z,7001
2023-03-06T12:44:57.897Z,6377
2023-03-06T12:46:12.130Z,6060
2023-03-06T12:47:26.359Z,5861
2023-03-06T12:49:54.901Z,5393
2023-03-06T12:51:09.122Z,5417
2023-03-06T12:52:23.361Z,5436
2023-03-06T12:53:37.570Z,5420
2023-03-06T12:54:51.878Z,5213
2023-03-06T12:56:06.110Z,4935
2023-03-06T12:57:20.345Z,4685
2023-03-06T12:58:34.566Z,4365
2023-03-06T12:59:48.799Z,4151
2023-03-06T13:01:03.099Z,3735
2023-03-06T13:02:17.334Z,3412
2023-03-06T13:03:31.563Z,3239
2023-03-06T13:04:45.786Z,3043
2023-03-06T13:06:00.012Z,2961
2023-03-06T13:07:14.000Z,2897
2023-03-06T13:08:28.652Z,2741
2023-03-06T13:09:41.947Z,2546
2023-03-06T13:10:56.174Z,2468
2023-03-06T13:12:10.482Z,2425
2023-03-06T13:13:24.729Z,2652
2023-03-06T13:14:38.941Z,3089
2023-03-06T13:15:53.174Z,3295
2023-03-06T13:17:07.403Z,3202
2023-03-06T13:18:21.706Z,3220
2023-03-06T13:19:35.945Z,3198
2023-03-06T13:22:04.522Z,4263
2023-03-06T13:23:18.737Z,4241
2023-03-06T13:24:33.037Z,4767
2023-03-06T13:25:47.289Z,5092
2023-03-06T13:27:01.507Z,5630
2023-03-06T13:28:15.745Z,6045
2023-03-06T13:29:29.972Z,9414
2023-03-06T13:30:44.256Z,6346
2023-03-06T13:31:58.512Z,6829
2023-03-06T13:33:12.741Z,6131
2023-03-06T13:34:26.962Z,5773
2023-03-06T13:35:41.192Z,5642
2023-03-06T13:36:55.487Z,5926
2023-03-06T13:38:09.730Z,6349
2023-03-06T13:39:23.944Z,6722
2023-03-06T13:40:38.178Z,6853
2023-03-06T13:41:52.405Z,5732
2023-03-06T13:43:06.709Z,7098
2023-03-06T13:44:20.940Z,7113
2023-03-06T13:45:35.171Z,7021
2023-03-06T13:46:49.405Z,6884
2023-03-06T13:48:03.626Z,6769
2023-03-06T13:49:17.931Z,6497
2023-03-06T13:50:32.163Z,7192
2023-03-06T13:51:46.405Z,6439
2023-03-06T13:53:00.614Z,6196
2023-03-06T13:54:14.843Z,6160
2023-03-06T13:55:29.146Z,5662
2023-03-06T13:56:43.387Z,5534
2023-03-06T13:57:57.620Z,5213
2023-03-06T13:59:11.844Z,4983
2023-03-06T14:00:26.066Z,4948
2023-03-06T14:01:40.367Z,5517
2023-03-06T14:02:54.611Z,5632
2023-03-06T14:04:08.835Z,5364
2023-03-06T14:05:23.064Z,5483
2023-03-06T14:06:37.344Z,5472
2023-03-06T14:07:51.655Z,5395
2023-03-06T14:09:05.935Z,5442
2023-03-06T14:10:19.225Z,5493
2023-03-06T14:11:33.445Z,5372
2023-03-06T14:12:47.747Z,5087
2023-03-06T14:14:01.986Z,5031
2023-03-06T14:15:16.226Z,4702
2023-03-06T14:16:30.454Z,4586
2023-03-06T14:17:44.669Z,4487
2023-03-06T14:18:58.973Z,4150
2023-03-06T14:20:13.208Z,4080
2023-03-06T14:21:27.442Z,4175
2023-03-06T14:22:41.674Z,4415
2023-03-06T14:23:55.894Z,4465
2023-03-06T14:25:10.203Z,4312
2023-03-06T14:26:24.429Z,4134
2023-03-06T14:27:38.662Z,4080
2023-03-06T14:28:52.880Z,4227
2023-03-06T14:30:07.120Z,4332
2023-03-06T14:31:21.416Z,4588
2023-03-06T14:32:35.651Z,4685
2023-03-06T14:33:49.879Z,4739
2023-03-06T14:35:04.106Z,4697
2023-03-06T14:36:18.334Z,4699
2023-03-06T14:37:32.642Z,4686
2023-03-06T14:38:46.878Z,4684
2023-03-06T14:40:01.098Z,4598
2023-03-06T14:41:15.393Z,4413
2023-03-06T14:42:28.710Z,4344
2023-03-06T14:43:42.993Z,4532
2023-03-06T14:44:56.289Z,4555
2023-03-06T14:46:10.528Z,4487
2023-03-06T14:47:24.828Z,4451
2023-03-06T14:48:39.060Z,4297
2023-03-06T14:49:53.283Z,4044
2023-03-06T14:51:07.522Z,3837
2023-03-06T14:52:21.743Z,3795
2023-03-06T14:53:36.034Z,3658
2023-03-06T14:54:50.281Z,3446
2023-03-06T14:56:04.508Z,3527
2023-03-06T14:57:18.746Z,3530
2023-03-06T14:58:32.962Z,3444
2023-03-06T14:59:47.258Z,3254
2023-03-06T15:01:01.501Z,3329
2023-03-06T15:02:15.733Z,3249
2023-03-06T15:03:29.000Z,3149
2023-03-06T15:05:58.487Z,3000
2023-03-06T15:07:12.727Z,3081
2023-03-06T15:08:26.959Z,3189
2023-03-06T15:09:41.177Z,3301
2023-03-06T15:10:55.397Z,3236
2023-03-06T15:12:09.707Z,3215
2023-03-06T15:13:23.946Z,3312
2023-03-06T15:14:38.180Z,3577
2023-03-06T15:15:52.468Z,3682
2023-03-06T15:17:06.748Z,3690
2023-03-06T15:18:21.035Z,3577
2023-03-06T15:19:35.317Z,3461
2023-03-06T15:20:48.617Z,3368
2023-03-06T15:22:02.838Z,3293
2023-03-06T15:23:17.151Z,3183
2023-03-06T15:24:31.393Z,3192
2023-03-06T15:25:45.606Z,3292
2023-03-06T15:26:59.849Z,3446
2023-03-06T15:28:14.066Z,3506
2023-03-06T15:29:28.373Z,3554
2023-03-06T15:30:42.602Z,3593
2023-03-06T15:31:56.830Z,3482
2023-03-06T15:33:11.068Z,3370
2023-03-06T15:34:25.288Z,3357
2023-03-06T15:35:39.595Z,3364
2023-03-06T15:36:53.835Z,3298
2023-03-06T15:38:08.045Z,3257
2023-03-06T15:40:36.501Z,3228
2023-03-06T15:41:50.809Z,3181
2023-03-06T15:43:05.044Z,3187
2023-03-06T15:44:19.271Z,3131
2023-03-06T15:45:33.498Z,3071
2023-03-06T15:46:47.726Z,3068
2023-03-06T15:48:02.035Z,3065
2023-03-06T15:49:16.273Z,3046
2023-03-06T15:50:30.501Z,2946
2023-03-06T15:51:44.784Z,2859
2023-03-06T15:52:58.081Z,2833
2023-03-06T15:54:12.322Z,2764
2023-03-06T15:55:26.553Z,2607
2023-03-06T15:56:40.764Z,2497
2023-03-06T15:57:54.993Z,2460
2023-03-06T15:59:09.305Z,2458
2023-03-06T16:00:23.539Z,2530
2023-03-06T16:01:37.759Z,2564
2023-03-06T16:02:51.984Z,2556
2023-03-06T16:04:06.215Z,2564
2023-03-06T16:05:20.516Z,2530
2023-03-06T16:06:34.765Z,2456
2023-03-06T16:07:48.982Z,2399
2023-03-06T16:09:03.216Z,2337
2023-03-06T16:10:17.448Z,2321
2023-03-06T16:11:31.736Z,2272
2023-03-06T16:12:45.982Z,2180
2023-03-06T16:14:00.214Z,1960
2023-03-06T16:15:14.439Z,1970
2023-03-06T16:16:28.649Z,1932
2023-03-06T16:17:42.953Z,1845
2023-03-06T16:18:57.206Z,1738
2023-03-06T16:20:11.423Z,1634
2023-03-06T16:21:25.662Z,1527
2023-03-06T16:22:39.883Z,1502
2023-03-06T16:23:54.239Z,1415
2023-03-06T16:25:08.529Z,1359
2023-03-06T16:26:21.822Z,1298
2023-03-06T16:27:36.050Z,1274
2023-03-06T16:28:50.357Z,1213
2023-03-06T16:30:04.586Z,1154
2023-03-06T16:31:18.807Z,1088
2023-03-06T16:32:33.046Z,1045
2023-03-06T16:33:47.261Z,1022
2023-03-06T16:35:01.571Z,986
2023-03-06T16:36:15.814Z,963
2023-03-06T16:37:30.030Z,940
2023-03-06T16:38:44.269Z,881
2023-03-06T16:39:58.486Z,876
2023-03-06T16:41:12.787Z,821
2023-03-06T16:43:41.249Z,737
2023-03-06T16:44:55.483Z,698
2023-03-06T16:46:09.716Z,694
2023-03-06T16:47:24.012Z,643
2023-03-06T16:48:38.249Z,592
2023-03-06T16:49:52.486Z,563
2023-03-06T16:51:06.706Z,539
2023-03-06T16:52:20.933Z,517
2023-03-06T16:53:35.238Z,496
2023-03-06T16:54:49.481Z,463
2023-03-06T16:56:03.692Z,432
2023-03-06T16:57:17.990Z,399
2023-03-06T16:58:31.318Z,393
2023-03-06T16:59:45.607Z,364
2023-03-06T17:00:58.893Z,335
2023-03-06T17:02:13.126Z,330
2023-03-06T17:03:27.423Z,305
2023-03-06T17:04:41.660Z,280
2023-03-06T17:05:55.889Z,256
2023-03-06T17:08:24.332Z,225
2023-03-06T17:09:38.634Z,203
2023-03-06T17:10:52.887Z,179
2023-03-06T17:12:07.100Z,163
2023-03-06T17:13:21.339Z,146
2023-03-06T17:14:35.571Z,143
2023-03-06T17:15:49.854Z,129
2023-03-06T17:17:04.093Z,109
2023-03-06T17:18:18.331Z,93
2023-03-06T17:19:32.548Z,81
2023-03-06T17:20:46.792Z,71
2023-03-06T17:22:01.091Z,64
2023-03-06T17:23:15.324Z,53
2023-03-06T17:24:29.552Z,45
2023-03-06T17:25:43.776Z,36
2023-03-06T17:26:58.005Z,33
2023-03-06T17:28:12.296Z,29
2023-03-06T17:29:26.544Z,19
2023-03-06T17:30:40.761Z,19
2023-03-06T17:31:55.048Z,16
2023-03-06T17:33:08.386Z,13
2023-03-06T17:34:22.680Z,12
2023-03-06T17:35:35.960Z,11
2023-03-06T17:36:50.191Z,6
2023-03-06T17:38:04.483Z,5
2023-03-06T17:39:18.735Z,4
2023-03-06T17:40:32.969Z,2
2023-03-06T17:41:47.182Z,1
2023-03-06T17:43:01.420Z,2
2023-03-06T17:44:15.720Z,2